Time;durP1;ratioP1;P1;durP2;ratioP2;P2;SDS_P1;SDS_P2;PMS_P1;PMS_P2;Temp;Humidity;BMP_temperature;BMP_pressure;BME280_temperature;BME280_humidity;BME280_pressure;Samples;Min_cycle;Max_cycle;Signal;HPM_P1;HPM_P2
2024/01/24 00:00:34;;;;;;;;;0.00;0.00;;;;;13.99;77.30;102341.69;2071087;27;2729495;-75
2024/01/24 00:01:48;;;;;;;;;0.00;0.00;;;;;14.00;77.09;102335.50;2047325;27;2722561;-75
2024/01/24 00:03:02;;;;;;;;;0.00;0.00;;;;;14.01;76.97;102343.41;2055131;27;2716932;-75
2024/01/24 00:04:15;;;;;;;;;0.00;0.00;;;;;14.02;76.91;102342.50;2055289;27;2716945;-75
2024/01/24 00:05:28;;;;;;;;;0.00;0.00;;;;;14.01;77.06;102338.09;2064476;27;2725332;-75
2024/01/24 00:06:41;;;;;;;;;0.00;0.00;;;;;14.02;77.03;102344.28;2046192;27;2724633;-75
2024/01/24 00:07:54;;;;;;;;;0.00;0.00;;;;;14.03;76.81;102351.28;2048454;27;2712762;-75
2024/01/24 00:09:08;;;;;;;;;0.00;0.00;;;;;14.02;76.96;102342.50;2055046;27;2724256;-75
2024/01/24 00:10:23;;;;;;;;;0.00;0.00;;;;;14.03;76.99;102346.88;2050841;27;2725301;-75
2024/01/24 00:11:36;;;;;;;;;0.00;0.00;;;;;14.04;77.04;102353.03;2048424;27;2719063;-75
2024/01/24 00:12:49;;;;;;;;;0.00;0.00;;;;;14.05;76.65;102354.78;2059428;27;2716993;-75
2024/01/24 00:14:03;;;;;;;;;0.00;0.00;;;;;14.05;76.79;102355.63;2060487;27;2712818;-75
2024/01/24 00:15:16;;;;;;;;;0.00;0.00;;;;;14.06;76.70;102349.44;2067471;27;2713204;-75
2024/01/24 00:16:29;;;;;;;;;0.00;0.00;;;;;14.06;76.86;102364.44;2041624;27;2722181;-75
2024/01/24 00:17:42;;;;;;;;;0.00;0.00;;;;;14.05;76.64;102354.78;2044530;27;2721173;-75
2024/01/24 00:18:56;;;;;;;;;0.00;0.00;;;;;14.06;76.36;102367.09;2066208;27;2724248;-75
2024/01/24 00:20:12;;;;;;;;;0.00;0.00;;;;;14.07;76.35;102371.47;2044669;27;2722168;-75
2024/01/24 00:21:25;;;;;;;;;0.00;0.00;;;;;14.06;76.64;102361.78;2041053;27;2698199;-75
2024/01/24 00:22:38;;;;;;;;;0.00;0.00;;;;;14.07;76.46;102374.97;2063755;27;2723246;-75
2024/01/24 00:23:51;;;;;;;;;0.00;0.00;;;;;14.07;76.42;102377.63;2048455;27;2712794;-75
2024/01/24 00:25:05;;;;;;;;;0.00;0.00;;;;;14.09;76.47;102368.78;2070358;27;2725784;-75
2024/01/24 00:26:18;;;;;;;;;0.00;0.00;;;;;14.10;76.76;102374.03;2043243;27;2719043;-75
2024/01/24 00:27:31;;;;;;;;;0.00;0.00;;;;;14.11;76.52;102372.28;2039529;27;2704421;-75
2024/01/24 00:28:45;;;;;;;;;0.00;0.00;;;;;14.10;76.63;102366.09;2064480;27;2723189;-75
2024/01/24 00:29:58;;;;;;;;;0.00;0.00;;;;;14.10;76.19;102358.19;2047775;27;2705518;-75
2024/01/24 00:31:11;;;;;;;;;0.00;0.00;;;;;14.09;76.65;102360.88;2063042;27;2708607;-75
2024/01/24 00:32:24;;;;;;;;;0.00;0.00;;;;;14.11;76.16;102364.34;2039375;27;2722643;-75
2024/01/24 00:33:37;;;;;;;;;0.00;0.00;;;;;14.11;76.34;102357.28;2070834;27;2724243;-75
2024/01/24 00:34:50;;;;;;;;;0.00;0.00;;;;;14.11;76.42;102357.28;2047775;27;2722148;-75
2024/01/24 00:36:04;;;;;;;;;0.00;0.00;;;;;14.12;76.14;102360.81;2062153;27;2724223;-75
2024/01/24 00:37:17;;;;;;;;;0.00;0.00;;;;;14.11;75.85;102354.63;2033116;27;2707582;-75
2024/01/24 00:38:30;;;;;;;;;0.00;0.00;;;;;14.12;76.13;102366.09;2061778;27;2723204;-75
2024/01/24 00:39:46;;;;;;;;;0.00;0.00;;;;;14.12;75.52;102361.69;2036986;27;2704437;-75
2024/01/24 00:40:59;;;;;;;;;0.00;0.00;;;;;14.12;76.10;102351.09;2041433;27;2721100;-75
2024/01/24 00:42:13;;;;;;;;;0.00;0.00;;;;;14.12;75.82;102343.16;2067231;27;2724227;-75
2024/01/24 00:43:26;;;;;;;;;0.00;0.00;;;;;14.11;76.54;102353.75;2040688;27;2698204;-75
2024/01/24 00:44:39;;;;;;;;;0.00;0.00;;;;;14.12;76.33;102353.75;2065042;27;2699236;-75
2024/01/24 00:45:52;;;;;;;;;0.00;0.00;;;;;14.13;76.41;102351.94;2063578;27;2692014;-75
2024/01/24 00:47:06;;;;;;;;;0.00;0.00;;;;;14.13;75.84;102362.53;2063327;27;2723210;-75
2024/01/24 00:48:19;;;;;;;;;0.00;0.00;;;;;14.14;75.96;102380.16;2048107;27;2715274;-75
2024/01/24 00:49:32;;;;;;;;;0.00;0.00;;;;;14.12;76.04;102366.97;2047507;27;2708592;-75
2024/01/24 00:50:45;;;;;;;;;0.00;0.00;;;;;14.13;76.08;102368.69;2047755;27;2722181;-75
2024/01/24 00:51:58;;;;;;;;;0.00;0.00;;;;;14.11;76.42;102370.50;2049189;27;2691961;-76
2024/01/24 00:53:19;;;;;;;;;0.00;0.00;;;;;14.12;76.03;102359.03;2071578;27;2717298;-75
2024/01/24 00:54:32;;;;;;;;;0.00;0.00;;;;;14.13;76.41;102378.38;2047266;27;2710675;-75
2024/01/24 00:55:46;;;;;;;;;0.00;0.00;;;;;14.13;76.11;102373.09;2063989;27;2724305;-75
2024/01/24 00:56:59;;;;;;;;;0.00;0.00;;;;;14.13;75.80;102358.13;2043115;27;2701328;-75
2024/01/24 00:58:12;;;;;;;;;0.00;0.00;;;;;14.13;76.12;102363.41;2038778;27;2722145;-75
2024/01/24 00:59:26;;;;;;;;;0.00;0.00;;;;;14.14;76.18;102366.91;2031937;27;2710699;-75
2024/01/24 01:00:39;;;;;;;;;0.00;0.00;;;;;14.15;76.20;102376.56;2060470;27;2722165;-75
2024/01/24 01:01:52;;;;;;;;;0.00;0.00;;;;;14.14;76.32;102374.84;2072962;27;2691954;-75
2024/01/24 01:03:05;;;;;;;;;0.00;0.00;;;;;14.14;75.94;102372.22;2060743;27;2725286;-75
2024/01/24 01:04:18;;;;;;;;;0.00;0.00;;;;;14.14;76.20;102386.31;2041779;27;2706533;-75
2024/01/24 01:05:31;;;;;;;;;0.00;0.00;;;;;14.13;76.56;102384.56;2072152;27;2692016;-75
2024/01/24 01:06:45;;;;;;;;;0.00;0.00;;;;;14.12;76.60;102388.13;2069123;27;2703408;-75
2024/01/24 01:07:58;;;;;;;;;0.00;0.00;;;;;14.11;76.46;102381.06;2078298;27;2704545;-75
2024/01/24 01:09:11;;;;;;;;;0.00;0.00;;;;;14.13;76.58;102373.09;2053433;27;2722207;-75
2024/01/24 01:10:24;;;;;;;;;0.00;0.00;;;;;14.14;76.60;102385.44;2038645;27;2714372;-75
2024/01/24 01:11:38;;;;;;;;;0.00;0.00;;;;;14.13;76.59;102381.91;2054923;27;2721233;-75
2024/01/24 01:12:52;;;;;;;;;0.00;0.00;;;;;14.12;76.39;102406.63;2057507;27;2721170;-75
2024/01/24 01:14:05;;;;;;;;;0.00;0.00;;;;;14.12;76.27;102377.53;2066001;27;2711743;-75
2024/01/24 01:15:18;;;;;;;;;0.00;0.00;;;;;14.12;76.31;102382.84;2068393;27;2703773;-75
2024/01/24 01:16:31;;;;;;;;;0.00;0.00;;;;;14.11;76.21;102394.31;2072788;27;2694013;-75
2024/01/24 01:17:44;;;;;;;;;0.00;0.00;;;;;14.11;76.23;102389.00;2058482;27;2708604;-75
2024/01/24 01:18:58;;;;;;;;;0.00;0.00;;;;;14.12;76.52;102371.38;2053237;27;2704425;-75
2024/01/24 01:20:12;;;;;;;;;0.00;0.00;;;;;14.11;76.32;102383.72;2058724;27;2721147;-75
2024/01/24 01:21:25;;;;;;;;;0.00;0.00;;;;;14.13;76.02;102367.81;2063677;27;2719023;-75
2024/01/24 01:22:39;;;;;;;;;0.00;0.00;;;;;14.12;76.14;102369.59;2040362;27;2710714;-75
2024/01/24 01:23:52;;;;;;;;;0.00;0.00;;;;;14.13;75.47;102381.03;2070411;27;2717307;-75
2024/01/24 01:25:05;;;;;;;;;0.00;0.00;;;;;14.10;75.88;102381.97;2047975;27;2721095;-75
2024/01/24 01:26:19;;;;;;;;;0.00;0.00;;;;;14.10;75.99;102389.91;2067622;27;2708620;-75
2024/01/24 01:27:32;;;;;;;;;0.00;0.00;;;;;14.09;76.45;102384.66;2044115;27;2706520;-75
2024/01/24 01:28:45;;;;;;;;;0.00;0.00;;;;;14.10;76.11;102381.13;2064066;27;2706520;-75
2024/01/24 01:29:58;;;;;;;;;0.00;0.00;;;;;14.07;76.59;102380.25;2046749;27;2712787;-74
2024/01/24 01:31:11;;;;;;;;;0.00;0.00;;;;;14.08;76.39;102378.50;2062868;27;2706592;-75
2024/01/24 01:32:24;;;;;;;;;0.00;0.00;;;;;14.09;76.42;102397.88;2064082;27;2716929;-75
2024/01/24 01:33:38;;;;;;;;;0.00;0.00;;;;;14.08;76.69;102381.13;2048186;27;2697165;-75
2024/01/24 01:34:51;;;;;;;;;0.00;0.00;;;;;14.10;76.36;102383.78;2063287;27;2692036;-75
2024/01/24 01:36:04;;;;;;;;;0.00;0.00;;;;;14.10;76.73;102389.91;2063714;27;2713266;-75
2024/01/24 01:37:17;;;;;;;;;0.00;0.00;;;;;14.08;77.37;102375.84;2071728;27;2705506;-75
2024/01/24 01:38:30;;;;;;;;;0.00;0.00;;;;;14.07;77.48;102371.47;2071677;27;2712766;-75
2024/01/24 01:39:44;;;;;;;;;0.00;0.00;;;;;14.07;76.97;102376.78;2071476;27;2707665;-75
2024/01/24 01:40:57;;;;;;;;;0.00;0.00;;;;;14.06;77.74;102370.59;2071736;27;2698239;-75
2024/01/24 01:42:10;;;;;;;;;0.00;0.00;;;;;14.07;77.30;102374.97;2069433;27;2721115;-75
2024/01/24 01:43:24;;;;;;;;;0.00;0.00;;;;;14.10;77.67;102378.47;2063158;27;2692541;-76
2024/01/24 01:44:45;;;;;;;;;0.00;0.00;;;;;14.11;77.61;102388.13;2056307;28;2692021;-76
2024/01/24 01:46:06;;;;;;;;;0.00;0.00;;;;;14.10;77.78;102381.13;2059494;27;2691934;-76
2024/01/24 01:47:20;;;;;;;;;0.00;0.00;;;;;14.09;77.91;102382.88;2071650;27;2704567;-75
2024/01/24 01:48:34;;;;;;;;;0.00;0.00;;;;;14.09;77.51;102371.44;2072579;27;2699228;-75
2024/01/24 01:49:47;;;;;;;;;0.00;0.00;;;;;14.08;77.99;102373.19;2063476;27;2703510;-75
2024/01/24 01:51:01;;;;;;;;;0.00;0.00;;;;;14.07;77.66;102374.13;2055258;27;2703430;-75
2024/01/24 01:52:15;;;;;;;;;0.00;0.00;;;;;14.05;78.01;102384.72;2065436;27;2691958;-75
2024/01/24 01:53:29;;;;;;;;;0.00;0.00;;;;;14.04;77.35;102385.63;2062461;27;2725293;-75
2024/01/24 01:54:43;;;;;;;;;0.00;0.00;;;;;14.03;77.41;102391.81;2041910;27;2704448;-75
2024/01/24 01:55:57;;;;;;;;;0.00;0.00;;;;;14.03;77.75;102393.56;2063013;27;2710694;-75
2024/01/24 01:57:11;;;;;;;;;0.00;0.00;;;;;14.02;77.86;102402.44;2065269;27;2701415;-75
2024/01/24 01:58:24;;;;;;;;;0.00;0.00;;;;;14.01;78.27;102400.69;2072203;27;2691925;-75
2024/01/24 01:59:41;;;;;;;;;0.00;0.00;;;;;13.98;78.25;102400.72;2073206;27;2701340;-75
2024/01/24 02:00:55;;;;;;;;;0.00;0.00;;;;;13.99;78.25;102402.50;2072874;27;2691925;-75
2024/01/24 02:02:09;;;;;;;;;0.00;0.00;;;;;13.99;78.16;102413.06;2062979;27;2712795;-75
2024/01/24 02:03:22;;;;;;;;;0.00;0.00;;;;;13.98;77.99;102400.72;2065039;27;2704433;-75
2024/01/24 02:04:36;;;;;;;;;0.00;0.00;;;;;13.98;78.02;102416.59;2062199;27;2708616;-75
2024/01/24 02:05:49;;;;;;;;;0.00;0.00;;;;;13.99;77.69;102413.94;2055880;27;2716960;-75
2024/01/24 02:07:03;;;;;;;;;0.00;0.00;;;;;13.98;77.94;102406.91;2064600;27;2700274;-75
2024/01/24 02:08:16;;;;;;;;;0.00;0.00;;;;;13.98;77.88;102411.31;2066372;27;2703422;-75
2024/01/24 02:09:29;;;;;;;;;0.00;0.00;;;;;13.97;77.86;102431.59;2072868;27;2692000;-75
2024/01/24 02:10:44;;;;;;;;;0.00;0.00;;;;;13.98;78.12;102421.88;2072097;27;2698178;-75
2024/01/24 02:11:57;;;;;;;;;0.00;0.00;;;;;13.98;77.46;102411.31;2063778;27;2699322;-75
2024/01/24 02:13:11;;;;;;;;;0.00;0.00;;;;;13.95;78.63;102412.28;2063962;27;2704457;-75
2024/01/24 02:14:24;;;;;;;;;0.00;0.00;;;;;13.93;78.56;102407.00;2071961;27;2704445;-75
2024/01/24 02:15:37;;;;;;;;;0.00;0.00;;;;;13.93;78.55;102399.06;2063339;27;2692434;-76
2024/01/24 02:16:50;;;;;;;;;0.00;0.00;;;;;13.92;78.10;102405.28;2067213;27;2691965;-75
2024/01/24 02:18:04;;;;;;;;;0.00;0.00;;;;;13.91;78.25;102398.22;2072976;27;2696611;-75
2024/01/24 02:19:17;;;;;;;;;0.00;0.00;;;;;13.91;77.86;102389.41;2071120;27;2698180;-75
2024/01/24 02:20:31;;;;;;;;;0.00;0.00;;;;;13.90;78.66;102385.91;2071499;27;2691969;-75
2024/01/24 02:21:45;;;;;;;;;0.00;0.00;;;;;13.88;77.87;102381.59;2059188;27;2704452;-75
2024/01/24 02:22:58;;;;;;;;;0.00;0.00;;;;;13.87;78.11;102377.19;2062359;27;2691953;-75
2024/01/24 02:24:12;;;;;;;;;0.00;0.00;;;;;13.86;78.59;102386.00;2071940;27;2702411;-75
2024/01/24 02:25:25;;;;;;;;;0.00;0.00;;;;;13.84;78.65;102386.03;2072991;27;2691955;-75
2024/01/24 02:26:38;;;;;;;;;0.00;0.00;;;;;13.83;78.33;102374.59;2071211;27;2694036;-75
2024/01/24 02:27:52;;;;;;;;;0.00;0.00;;;;;13.82;78.52;102380.81;2071469;27;2700267;-75
2024/01/24 02:29:05;;;;;;;;;0.00;0.00;;;;;13.81;78.52;102383.47;2069522;27;2691934;-75
2024/01/24 02:30:18;;;;;;;;;0.00;0.00;;;;;13.80;78.50;102390.50;2068455;27;2698210;-75
2024/01/24 02:31:32;;;;;;;;;0.00;0.00;;;;;13.79;78.54;102382.63;2072206;27;2700270;-75
2024/01/24 02:32:45;;;;;;;;;0.00;0.00;;;;;13.78;78.42;102391.47;2071328;27;2703798;-75
2024/01/24 02:33:58;;;;;;;;;0.00;0.00;;;;;13.77;78.69;102387.06;2064244;27;2694057;-74
2024/01/24 02:35:12;;;;;;;;;0.00;0.00;;;;;13.75;78.72;102395.03;2071708;27;2703425;-75
2024/01/24 02:36:25;;;;;;;;;0.00;0.00;;;;;13.75;78.81;102402.97;2078578;27;2699335;-75
2024/01/24 02:37:41;;;;;;;;;0.00;0.00;;;;;13.75;79.09;102407.38;2062328;27;2691953;-75
2024/01/24 02:38:54;;;;;;;;;0.00;0.00;;;;;13.76;78.75;102411.75;2063156;27;2704433;-75
2024/01/24 02:40:08;;;;;;;;;0.00;0.00;;;;;13.76;79.18;102412.63;2072725;27;2691922;-75
2024/01/24 02:41:21;;;;;;;;;0.00;0.00;;;;;13.75;78.84;102400.31;2071016;27;2725285;-75
2024/01/24 02:42:34;;;;;;;;;0.00;0.00;;;;;13.75;78.92;102410.91;2072635;27;2691938;-75
2024/01/24 02:43:47;;;;;;;;;0.00;0.00;;;;;13.76;78.83;102411.75;2072774;27;2691945;-75
2024/01/24 02:45:00;;;;;;;;;0.00;0.00;;;;;13.76;78.83;102398.53;2072979;27;2694045;-75
2024/01/24 02:46:14;;;;;;;;;0.00;0.00;;;;;13.76;78.43;102409.09;2072181;27;2691930;-75
2024/01/24 02:47:27;;;;;;;;;0.00;0.00;;;;;13.75;78.83;102394.16;2062390;27;2704429;-75
2024/01/24 02:48:40;;;;;;;;;0.00;0.00;;;;;13.75;78.59;102408.25;2055503;27;2696471;-75
2024/01/24 02:49:53;;;;;;;;;0.00;0.00;;;;;13.73;78.77;102407.38;2065527;27;2691934;-75
2024/01/24 02:51:06;;;;;;;;;0.00;0.00;;;;;13.73;79.11;102402.97;2070616;27;2716933;-75
2024/01/24 02:52:20;;;;;;;;;0.00;0.00;;;;;13.73;78.61;102397.69;2062580;27;2696179;-75
2024/01/24 02:53:33;;;;;;;;;0.00;0.00;;;;;13.74;78.70;102398.56;2065648;27;2691941;-75
2024/01/24 02:54:46;;;;;;;;;0.00;0.00;;;;;13.75;79.47;102394.16;2072387;27;2697661;-75
2024/01/24 02:55:59;;;;;;;;;0.00;0.00;;;;;13.76;79.17;102398.53;2072322;27;2692450;-75
2024/01/24 02:57:12;;;;;;;;;0.00;0.00;;;;;13.76;78.99;102402.03;2071217;27;2696469;-75
2024/01/24 02:58:25;;;;;;;;;0.00;0.00;;;;;13.77;78.82;102402.94;2064925;27;2712768;-75
2024/01/24 02:59:39;;;;;;;;;0.00;0.00;;;;;13.78;78.92;102399.41;2070978;27;2704465;-75
2024/01/24 03:00:52;;;;;;;;;0.00;0.00;;;;;13.78;79.11;102397.59;2064193;27;2700285;-74
2024/01/24 03:02:05;;;;;;;;;0.00;0.00;;;;;13.79;79.10;102401.13;2059884;27;2708591;-75
2024/01/24 03:03:19;;;;;;;;;0.00;0.00;;;;;13.79;79.18;102395.84;2060863;27;2701351;-75
2024/01/24 03:04:32;;;;;;;;;0.00;0.00;;;;;13.79;78.97;102396.72;2079462;27;2704448;-75
2024/01/24 03:05:45;;;;;;;;;0.00;0.00;;;;;13.80;78.90;102398.44;2060441;27;2702347;-75
2024/01/24 03:06:58;;;;;;;;;0.00;0.00;;;;;13.80;79.30;102397.59;2063405;27;2692010;-75
2024/01/24 03:08:11;;;;;;;;;0.00;0.00;;;;;13.80;78.90;102401.06;2065419;27;2691969;-75
2024/01/24 03:09:24;;;;;;;;;0.00;0.00;;;;;13.82;78.70;102411.63;2064166;27;2708652;-75
2024/01/24 03:10:37;;;;;;;;;0.00;0.00;;;;;13.82;78.68;102409.00;2071261;27;2700263;-75
2024/01/24 03:11:51;;;;;;;;;0.00;0.00;;;;;13.82;78.58;102411.63;2072511;27;2691949;-75
2024/01/24 03:13:04;;;;;;;;;0.00;0.00;;;;;13.82;78.81;102422.22;2072524;27;2692460;-75
2024/01/24 03:14:17;;;;;;;;;0.00;0.00;;;;;13.83;78.12;102408.06;2070820;27;2705489;-75
2024/01/24 03:15:30;;;;;;;;;0.00;0.00;;;;;13.82;78.61;102403.72;2058148;27;2699319;-75
2024/01/24 03:16:43;;;;;;;;;0.00;0.00;;;;;13.83;78.24;102405.44;2059423;27;2691969;-75
2024/01/24 03:17:57;;;;;;;;;0.00;0.00;;;;;13.83;78.64;102405.44;2069822;27;2701315;-75
2024/01/24 03:19:10;;;;;;;;;0.00;0.00;;;;;13.84;79.06;102409.81;2069053;27;2704444;-75
2024/01/24 03:20:23;;;;;;;;;0.00;0.00;;;;;13.85;78.42;102416.88;2073111;27;2691945;-75
2024/01/24 03:21:36;;;;;;;;;0.00;0.00;;;;;13.85;78.88;102427.44;2072361;27;2691945;-75
2024/01/24 03:22:49;;;;;;;;;0.00;0.00;;;;;13.86;78.71;102423.00;2068359;27;2691954;-75
2024/01/24 03:24:02;;;;;;;;;0.00;0.00;;;;;13.86;78.90;102418.59;2062756;27;2706543;-75
2024/01/24 03:25:18;;;;;;;;;0.00;0.00;;;;;13.88;79.13;102415.94;2063542;27;2706512;-75
2024/01/24 03:26:31;;;;;;;;;0.00;0.00;;;;;13.89;78.90;102418.53;2061198;27;2700270;-75
2024/01/24 03:27:44;;;;;;;;;0.00;0.00;;;;;13.89;78.77;102423.81;2056218;27;2691970;-75
2024/01/24 03:28:58;;;;;;;;;0.00;0.00;;;;;13.87;79.20;102420.34;2070080;27;2691937;-75
2024/01/24 03:30:11;;;;;;;;;0.00;0.00;;;;;13.88;78.98;102414.16;2069995;27;2700310;-75
2024/01/24 03:31:24;;;;;;;;;0.00;0.00;;;;;13.89;78.83;102415.03;2072761;27;2691948;-75
2024/01/24 03:32:38;;;;;;;;;0.00;0.00;;;;;13.90;78.49;102411.50;2063367;27;2698231;-75
2024/01/24 03:33:51;;;;;;;;;0.00;0.00;;;;;13.90;78.49;102414.97;2064314;27;2695143;-75
2024/01/24 03:35:06;;;;;;;;;0.00;0.00;;;;;13.92;78.26;102417.59;2069153;27;2699224;-75
2024/01/24 03:36:19;;;;;;;;;0.00;0.00;;;;;13.92;78.39;102407.91;2058592;27;2700295;-75
2024/01/24 03:37:33;;;;;;;;;0.00;0.00;;;;;13.93;78.50;102403.47;2064171;27;2704445;-75
2024/01/24 03:38:46;;;;;;;;;0.00;0.00;;;;;13.93;77.79;102409.63;2065786;27;2691945;-75
2024/01/24 03:39:59;;;;;;;;;0.00;0.00;;;;;13.94;77.98;102421.09;2071279;27;2710762;-75
2024/01/24 03:41:13;;;;;;;;;0.00;0.00;;;;;13.93;78.16;102414.94;2071306;27;2691974;-75
2024/01/24 03:42:26;;;;;;;;;0.00;0.00;;;;;13.94;78.02;102410.50;2071091;27;2697133;-75
2024/01/24 03:43:39;;;;;;;;;0.00;0.00;;;;;13.95;78.04;102401.69;2071580;27;2691937;-75
2024/01/24 03:44:53;;;;;;;;;0.00;0.00;;;;;13.94;78.05;102400.81;2072916;27;2691993;-75
2024/01/24 03:46:06;;;;;;;;;0.00;0.00;;;;;13.95;78.08;102407.81;2070263;27;2694056;-75
2024/01/24 03:47:19;;;;;;;;;0.00;0.00;;;;;13.94;77.55;102406.09;2072089;27;2701335;-75
2024/01/24 03:48:33;;;;;;;;;0.00;0.00;;;;;13.95;77.98;102385.84;2062371;27;2691981;-75
2024/01/24 03:49:46;;;;;;;;;0.00;0.00;;;;;13.95;77.78;102412.28;2063994;27;2698179;-76
2024/01/24 03:50:59;;;;;;;;;0.00;0.00;;;;;13.94;78.36;102395.53;2070702;27;2700295;-76
2024/01/24 03:52:12;;;;;;;;;0.00;0.00;;;;;13.93;78.10;102399.06;2072379;27;2700294;-76
2024/01/24 03:53:25;;;;;;;;;0.00;0.00;;;;;13.94;78.36;102395.53;2076068;27;2725249;-76
2024/01/24 03:54:38;;;;;;;;;0.00;0.00;;;;;13.95;78.13;102389.31;2077520;27;2698175;-75
2024/01/24 03:55:52;;;;;;;;;0.00;0.00;;;;;13.94;77.76;102390.25;2063984;27;2698199;-75
2024/01/24 03:57:05;;;;;;;;;0.00;0.00;;;;;13.94;78.31;102395.53;2061816;27;2696139;-75
2024/01/24 03:58:18;;;;;;;;;0.00;0.00;;;;;13.94;78.12;102395.53;2066570;27;2691949;-75
2024/01/24 03:59:31;;;;;;;;;0.00;0.00;;;;;13.95;78.04;102393.75;2073912;27;2698238;-75
2024/01/24 04:00:45;;;;;;;;;0.00;0.00;;;;;13.97;78.05;102396.38;2066533;27;2691961;-75
2024/01/24 04:01:58;;;;;;;;;0.00;0.00;;;;;13.98;77.77;102395.44;2062500;27;2700296;-75
2024/01/24 04:03:11;;;;;;;;;0.00;0.00;;;;;13.98;78.04;102387.50;2063336;27;2691957;-75
2024/01/24 04:04:24;;;;;;;;;0.00;0.00;;;;;13.97;77.91;102386.66;2072747;27;2694044;-76
2024/01/24 04:05:37;;;;;;;;;0.00;0.00;;;;;13.99;77.79;102394.56;2068756;27;2698691;-76
2024/01/24 04:06:51;;;;;;;;;0.00;0.00;;;;;14.00;78.02;102393.66;2055916;27;2700282;-76
2024/01/24 04:08:04;;;;;;;;;0.00;0.00;;;;;13.99;78.09;102390.16;2066181;27;2698179;-76
2024/01/24 04:09:17;;;;;;;;;0.00;0.00;;;;;14.00;77.77;102391.03;2072559;27;2691945;-76
2024/01/24 04:10:30;;;;;;;;;0.00;0.00;;;;;14.00;77.50;102383.09;2066255;27;2691957;-76
2024/01/24 04:11:43;;;;;;;;;0.00;0.00;;;;;14.00;77.68;102383.94;2074170;27;2691934;-75
2024/01/24 04:12:57;;;;;;;;;0.00;0.00;;;;;14.01;77.71;102396.25;2072211;27;2712827;-75
2024/01/24 04:14:10;;;;;;;;;0.00;0.00;;;;;14.02;77.85;102389.22;2073943;27;2691974;-75
2024/01/24 04:15:23;;;;;;;;;0.00;0.00;;;;;14.02;78.02;102384.81;2056081;27;2691973;-75
2024/01/24 04:16:39;;;;;;;;;0.00;0.00;;;;;14.03;77.33;102388.28;2050959;27;2694033;-75
2024/01/24 04:17:52;;;;;;;;;0.00;0.00;;;;;14.03;77.85;102377.72;2065847;27;2704434;-75
2024/01/24 04:19:06;;;;;;;;;0.00;0.00;;;;;14.04;77.66;102379.47;2074205;27;2691973;-75
2024/01/24 04:20:19;;;;;;;;;0.00;0.00;;;;;14.04;77.51;102390.03;2071478;27;2692412;-75
2024/01/24 04:21:32;;;;;;;;;0.00;0.00;;;;;14.03;77.45;102393.56;2073149;27;2691961;-75
2024/01/24 04:22:46;;;;;;;;;0.00;0.00;;;;;14.03;77.45;102377.72;2073894;27;2691955;-75
2024/01/24 04:23:59;;;;;;;;;0.00;0.00;;;;;14.03;77.50;102390.94;2073359;27;2698195;-75
2024/01/24 04:25:12;;;;;;;;;0.00;0.00;;;;;14.04;77.77;102400.63;2063088;27;2691953;-75
2024/01/24 04:26:25;;;;;;;;;0.00;0.00;;;;;14.03;77.67;102397.09;2065434;27;2697141;-75
2024/01/24 04:27:38;;;;;;;;;0.00;0.00;;;;;14.01;78.03;102395.38;2072294;27;2702366;-75
2024/01/24 04:28:52;;;;;;;;;0.00;0.00;;;;;14.04;77.88;102405.91;2071704;27;2703412;-75
2024/01/24 04:30:05;;;;;;;;;0.00;0.00;;;;;14.05;77.51;102405.03;2068652;27;2691949;-75
2024/01/24 04:31:18;;;;;;;;;0.00;0.00;;;;;14.05;77.82;102402.38;2065854;27;2691933;-75
2024/01/24 04:32:32;;;;;;;;;0.00;0.00;;;;;14.05;78.02;102397.09;2072607;27;2691972;-75
2024/01/24 04:33:45;;;;;;;;;0.00;0.00;;;;;14.05;78.09;102394.44;2063711;27;2691965;-75
2024/01/24 04:34:58;;;;;;;;;0.00;0.00;;;;;14.05;77.63;102397.09;2061630;27;2703392;-75
2024/01/24 04:36:11;;;;;;;;;0.00;0.00;;;;;14.04;77.48;102400.63;2056273;28;2698215;-75
2024/01/24 04:37:24;;;;;;;;;0.00;0.00;;;;;14.05;77.88;102420.88;2065237;27;2691934;-75
2024/01/24 04:38:38;;;;;;;;;0.00;0.00;;;;;14.05;77.85;102412.94;2071138;27;2698191;-75
2024/01/24 04:39:52;;;;;;;;;0.00;0.00;;;;;14.04;77.95;102412.06;2073381;27;2692049;-75
2024/01/24 04:41:08;;;;;;;;;0.00;0.00;;;;;14.03;77.71;102410.31;2072470;27;2702357;-75
2024/01/24 04:42:21;;;;;;;;;0.00;0.00;;;;;14.05;77.73;102403.22;2064574;27;2694055;-75
2024/01/24 04:43:35;;;;;;;;;0.00;0.00;;;;;14.04;77.53;102417.34;2065930;27;2691949;-75
2024/01/24 04:44:48;;;;;;;;;0.00;0.00;;;;;14.05;77.91;102418.25;2073417;27;2694564;-75
2024/01/24 04:46:01;;;;;;;;;0.00;0.00;;;;;14.04;78.23;102411.19;2073717;27;2700295;-75
2024/01/24 04:47:14;;;;;;;;;0.00;0.00;;;;;14.05;77.85;102415.59;2072982;27;2691934;-75
2024/01/24 04:48:27;;;;;;;;;0.00;0.00;;;;;14.04;77.59;102417.34;2072695;27;2704452;-75
2024/01/24 04:49:41;;;;;;;;;0.00;0.00;;;;;14.05;77.65;102408.50;2071226;27;2712881;-75
2024/01/24 04:50:54;;;;;;;;;0.00;0.00;;;;;14.05;77.43;102424.38;2062251;27;2708634;-75
2024/01/24 04:52:08;;;;;;;;;0.00;0.00;;;;;14.06;77.14;102433.19;2063951;27;2691957;-75
2024/01/24 04:53:21;;;;;;;;;0.00;0.00;;;;;14.06;77.02;102425.25;2057425;27;2691962;-75
2024/01/24 04:54:35;;;;;;;;;0.00;0.00;;;;;14.06;77.39;102433.19;2065060;27;2691954;-75
2024/01/24 04:55:48;;;;;;;;;0.00;0.00;;;;;14.06;77.29;102435.81;2072947;27;2704425;-75
2024/01/24 04:57:02;;;;;;;;;0.00;0.00;;;;;14.05;77.02;102432.31;2063422;27;2691942;-75
2024/01/24 04:58:15;;;;;;;;;0.00;0.00;;;;;14.05;77.27;102442.88;2065996;27;2696191;-75
2024/01/24 04:59:31;;;;;;;;;0.00;0.00;;;;;14.07;76.88;102442.88;2071945;27;2696093;-75
2024/01/24 05:00:44;;;;;;;;;0.00;0.00;;;;;14.06;76.84;102438.47;2060527;27;2697202;-75
2024/01/24 05:01:57;;;;;;;;;0.00;0.00;;;;;14.06;77.06;102441.13;2061389;27;2698172;-75
2024/01/24 05:03:10;;;;;;;;;0.00;0.00;;;;;14.05;77.25;102440.22;2065235;27;2694052;-75
2024/01/24 05:04:24;;;;;;;;;0.00;0.00;;;;;14.05;77.25;102434.09;2073390;27;2694049;-75
2024/01/24 05:05:37;;;;;;;;;0.00;0.00;;;;;14.06;77.50;102433.19;2072739;27;2704795;-75
2024/01/24 05:06:50;;;;;;;;;0.00;0.00;;;;;14.05;77.39;102424.38;2072204;27;2691937;-75
2024/01/24 05:08:03;;;;;;;;;0.00;0.00;;;;;14.07;77.48;102427.84;2072335;27;2701404;-75
2024/01/24 05:09:17;;;;;;;;;0.00;0.00;;;;;14.08;77.67;102439.31;2072516;27;2692292;-75
2024/01/24 05:10:30;;;;;;;;;0.00;0.00;;;;;14.09;77.47;102435.78;2068581;27;2694029;-75
2024/01/24 05:11:43;;;;;;;;;0.00;0.00;;;;;14.11;77.18;102438.38;2064093;27;2699237;-75
2024/01/24 05:12:56;;;;;;;;;0.00;0.00;;;;;14.11;77.36;102443.66;2071670;27;2704440;-75
2024/01/24 05:14:09;;;;;;;;;0.00;0.00;;;;;14.11;77.31;102441.88;2072471;27;2691941;-75
2024/01/24 05:15:22;;;;;;;;;0.00;0.00;;;;;14.13;77.12;102447.13;2062440;27;2725301;-75
2024/01/24 05:16:40;;;;;;;;;0.00;0.00;;;;;14.14;77.25;102440.97;2064964;27;2708615;-75
2024/01/24 05:17:53;;;;;;;;;0.00;0.00;;;;;14.13;77.32;102448.00;2057690;27;2703420;-75
2024/01/24 05:19:07;;;;;;;;;0.00;0.00;;;;;14.12;77.32;102445.41;2069144;27;2711093;-75
2024/01/24 05:20:20;;;;;;;;;0.00;0.00;;;;;14.13;76.66;102453.31;2055908;27;2691945;-75
2024/01/24 05:21:42;;;;;;;;;0.00;0.00;;;;;14.14;76.96;102457.69;2070908;27;2708624;-75
2024/01/24 05:22:55;;;;;;;;;0.00;0.00;;;;;14.14;77.14;102456.81;2073126;27;2702385;-75
2024/01/24 05:24:10;;;;;;;;;0.00;0.00;;;;;14.16;76.83;102468.25;2070520;27;2716917;-75
2024/01/24 05:25:23;;;;;;;;;0.00;0.00;;;;;14.16;77.14;102462.94;2072939;27;2701316;-75
2024/01/24 05:26:37;;;;;;;;;0.00;0.00;;;;;14.16;76.88;102455.91;2071958;27;2715344;-75
2024/01/24 05:27:50;;;;;;;;;0.00;0.00;;;;;14.16;76.52;102455.91;2072957;27;2700262;-75
2024/01/24 05:29:06;;;;;;;;;0.00;0.00;;;;;14.17;77.12;102470.00;2068692;27;2691946;-75
2024/01/24 05:30:19;;;;;;;;;0.00;0.00;;;;;14.16;77.14;102474.41;2065871;27;2699707;-75
2024/01/24 05:31:33;;;;;;;;;0.00;0.00;;;;;14.18;77.44;102475.22;2072286;27;2691953;-75
2024/01/24 05:32:47;;;;;;;;;0.00;0.00;;;;;14.18;77.41;102472.59;2072376;27;2713811;-75
2024/01/24 05:34:02;;;;;;;;;0.00;0.00;;;;;14.20;77.04;102474.34;2071267;27;2715903;-75